Time;durP1;ratioP1;P1;durP2;ratioP2;P2;SDS_P1;SDS_P2;PMS_P1;PMS_P2;Temp;Humidity;BMP_temperature;BMP_pressure;BME280_temperature;BME280_humidity;BME280_pressure;Samples;Min_cycle;Max_cycle;Signal;HPM_P1;HPM_P2
2022/05/20 00:01:44;;;;;;;25.77;19.10;;;16.00;99.90;;;;;;4916075;29;20199;-73
2022/05/20 00:04:28;;;;;;;22.70;18.70;;;16.00;99.90;;;;;;4915195;29;20600;-73
2022/05/20 00:07:12;;;;;;;26.07;17.33;;;16.00;99.90;;;;;;4897563;29;20265;-73
2022/05/20 00:09:56;;;;;;;22.47;17.80;;;16.00;99.90;;;;;;4901240;29;20219;-73
2022/05/20 00:12:41;;;;;;;20.47;18.07;;;15.90;99.90;;;;;;4894334;29;20255;-73
2022/05/20 00:15:28;;;;;;;21.63;19.33;;;15.90;99.90;;;;;;4901662;29;20256;-73
2022/05/20 00:18:12;;;;;;;23.63;17.80;;;15.80;99.90;;;;;;4901557;29;20227;-74
2022/05/20 00:20:59;;;;;;;24.13;18.73;;;15.80;99.90;;;;;;4886855;29;20231;-73
2022/05/20 00:23:43;;;;;;;24.80;18.83;;;15.80;99.90;;;;;;4906210;29;20612;-74
2022/05/20 00:26:27;;;;;;;25.87;23.07;;;15.70;99.90;;;;;;4914595;29;20500;-73
2022/05/20 00:29:11;;;;;;;21.13;18.93;;;15.70;99.90;;;;;;4901728;29;20439;-73
2022/05/20 00:31:55;;;;;;;21.47;19.03;;;15.70;99.90;;;;;;4916189;29;20172;-73
2022/05/20 00:34:39;;;;;;;21.17;19.03;;;15.60;99.90;;;;;;4901377;29;20179;-72
2022/05/20 00:37:23;;;;;;;20.57;18.13;;;15.70;99.90;;;;;;4897005;29;20207;-74
2022/05/20 00:40:10;;;;;;;20.30;18.13;;;15.70;99.90;;;;;;4903441;29;20279;-74
2022/05/20 00:43:15;;;;;;;20.87;18.17;;;15.70;99.90;;;;;;4908130;29;20260;-73
2022/05/20 00:46:08;;;;;;;24.20;18.03;;;15.60;99.90;;;;;;4894396;29;20202;-74
2022/05/20 00:49:15;;;;;;;23.23;18.87;;;15.60;99.90;;;;;;4916765;29;20214;-73
2022/05/20 00:51:59;;;;;;;22.67;18.67;;;15.60;99.90;;;;;;4920677;29;20675;-72
2022/05/20 00:54:46;;;;;;;24.80;18.77;;;15.60;99.90;;;;;;4904504;29;20565;-73
2022/05/20 00:57:36;;;;;;;23.73;18.40;;;15.50;99.90;;;;;;4912919;29;20264;-73
2022/05/20 01:00:24;;;;;;;21.20;18.87;;;15.50;99.90;;;;;;4882693;29;20212;-73
2022/05/20 01:03:11;;;;;;;20.97;17.47;;;15.50;99.90;;;;;;4882889;29;20261;-73
2022/05/20 01:05:57;;;;;;;22.23;18.17;;;15.40;99.90;;;;;;4893086;29;20236;-74
2022/05/20 01:08:41;;;;;;;23.07;18.10;;;15.40;99.90;;;;;;4900441;29;20271;-74
2022/05/20 01:11:26;;;;;;;20.00;17.10;;;15.40;99.90;;;;;;4907454;29;20275;-73
2022/05/20 01:14:18;;;;;;;20.03;17.17;;;15.40;99.90;;;;;;4898465;29;20211;-73
2022/05/20 01:17:03;;;;;;;21.60;17.73;;;15.40;99.90;;;;;;4893093;29;20215;-73
2022/05/20 01:19:53;;;;;;;20.20;16.97;;;15.30;99.90;;;;;;4895512;29;20228;-74
2022/05/20 01:22:40;;;;;;;24.50;18.40;;;15.30;99.90;;;;;;4898683;29;20203;-73
2022/05/20 01:25:27;;;;;;;20.47;17.73;;;15.20;99.90;;;;;;4914775;29;20215;-74
2022/05/20 01:28:12;;;;;;;22.90;17.17;;;15.20;99.90;;;;;;4896060;29;20268;-73
2022/05/20 01:31:03;;;;;;;20.20;16.87;;;15.20;99.90;;;;;;4895557;29;20176;-73
2022/05/20 01:33:51;;;;;;;20.60;17.27;;;15.20;99.90;;;;;;4901029;29;20195;-73
2022/05/20 01:36:35;;;;;;;19.77;17.37;;;15.10;99.90;;;;;;4904395;29;20201;-73
2022/05/20 01:39:19;;;;;;;20.10;17.70;;;15.10;99.90;;;;;;4894762;29;20265;-73
2022/05/20 01:42:30;;;;;;;21.07;17.03;;;15.00;99.90;;;;;;4895702;29;20200;-72
2022/05/20 01:45:46;;;;;;;19.37;16.47;;;15.00;99.90;;;;;;4923117;29;20170;-73
2022/05/20 01:48:58;;;;;;;17.90;16.13;;;14.90;99.90;;;;;;4919206;29;20218;-73
2022/05/20 01:52:03;;;;;;;21.03;16.00;;;14.90;99.90;;;;;;4885300;29;20192;-74
2022/05/20 01:54:53;;;;;;;20.23;15.57;;;14.90;99.90;;;;;;4897196;29;20223;-73
2022/05/20 01:58:00;;;;;;;17.57;15.70;;;14.80;99.90;;;;;;4904033;29;20220;-73
2022/05/20 02:00:46;;;;;;;17.17;15.43;;;14.90;99.90;;;;;;4932562;29;20269;-73
2022/05/20 02:03:40;;;;;;;17.50;15.27;;;14.80;99.90;;;;;;4922984;29;20171;-73
2022/05/20 02:06:36;;;;;;;20.37;15.50;;;14.80;99.90;;;;;;4932577;29;20175;-73
2022/05/20 02:09:31;;;;;;;20.37;16.33;;;14.80;99.90;;;;;;4891452;29;20216;-74
2022/05/20 02:12:18;;;;;;;19.77;15.70;;;14.80;99.90;;;;;;4895529;29;20188;-73
2022/05/20 02:15:39;;;;;;;22.57;15.70;;;14.70;99.90;;;;;;4903925;29;20176;-73
2022/05/20 02:18:29;;;;;;;20.53;16.40;;;14.70;99.90;;;;;;4903233;29;20642;-73
2022/05/20 02:21:16;;;;;;;18.67;15.53;;;14.70;99.90;;;;;;4894260;29;20219;-73
2022/05/20 02:24:04;;;;;;;18.90;15.77;;;14.60;99.90;;;;;;4915089;29;20204;-74
2022/05/20 02:26:56;;;;;;;20.03;14.93;;;14.70;99.90;;;;;;4924755;29;20195;-73
2022/05/20 02:29:46;;;;;;;17.37;14.77;;;14.70;99.90;;;;;;4935220;29;20230;-73
2022/05/20 02:32:51;;;;;;;16.80;14.27;;;14.60;99.90;;;;;;4903518;29;20584;-73
2022/05/20 02:35:36;;;;;;;17.00;13.77;;;14.60;99.90;;;;;;4903612;29;20570;-73
2022/05/20 02:38:23;;;;;;;14.00;11.73;;;14.50;99.90;;;;;;4917572;29;20586;-73
2022/05/20 02:41:08;;;;;;;11.37;10.27;;;14.50;99.90;;;;;;4911912;29;20221;-73
2022/05/20 02:43:52;;;;;;;10.73;9.63;;;14.60;99.90;;;;;;4936565;29;20227;-73
2022/05/20 02:46:38;;;;;;;12.07;9.70;;;14.50;99.90;;;;;;4935544;29;20690;-74
2022/05/20 02:49:21;;;;;;;12.17;8.70;;;14.50;99.90;;;;;;4922344;29;20218;-73
2022/05/20 02:52:06;;;;;;;10.67;8.37;;;14.50;99.90;;;;;;4917588;29;20251;-73
2022/05/20 02:54:50;;;;;;;10.27;7.70;;;14.50;99.90;;;;;;4913091;29;20327;-73
2022/05/20 02:57:35;;;;;;;10.30;8.20;;;14.50;99.90;;;;;;4902784;29;20203;-72
2022/05/20 03:06:26;;;;;;;8.80;6.60;;;14.40;99.90;;;;;;4898624;29;20180;-73
2022/05/20 03:09:12;;;;;;;7.53;6.80;;;14.40;99.90;;;;;;4884088;29;20252;-74
2022/05/20 03:11:57;;;;;;;7.53;6.60;;;14.40;99.90;;;;;;4915611;29;20619;-74
2022/05/20 03:14:41;;;;;;;7.03;6.30;;;14.40;99.90;;;;;;4921627;29;20251;-73
2022/05/20 03:17:26;;;;;;;8.73;5.50;;;14.40;99.90;;;;;;4921442;29;20271;-73
2022/05/20 03:20:11;;;;;;;6.90;5.37;;;14.40;99.90;;;;;;4921760;29;20218;-73
2022/05/20 03:22:55;;;;;;;5.40;4.90;;;14.30;99.90;;;;;;4921404;29;20187;-73
2022/05/20 03:25:39;;;;;;;7.53;4.93;;;14.30;99.90;;;;;;4903319;29;20199;-73
2022/05/20 03:28:23;;;;;;;7.93;6.10;;;14.30;99.90;;;;;;4883487;29;20249;-73
2022/05/20 03:31:09;;;;;;;6.93;5.40;;;14.30;99.90;;;;;;4883431;29;20229;-73
2022/05/20 03:33:54;;;;;;;5.67;5.03;;;14.30;99.90;;;;;;4883904;29;20185;-73
2022/05/20 03:36:42;;;;;;;5.63;5.00;;;14.20;99.90;;;;;;4883619;29;20180;-73
2022/05/20 03:39:26;;;;;;;6.27;4.93;;;14.20;99.90;;;;;;4891572;29;20227;-73
2022/05/20 03:42:10;;;;;;;7.97;5.03;;;14.30;99.90;;;;;;4920651;29;20727;-73
2022/05/20 03:44:54;;;;;;;7.40;5.20;;;14.30;99.90;;;;;;4922037;29;20186;-73
2022/05/20 03:47:39;;;;;;;6.33;4.90;;;14.30;99.90;;;;;;4937648;29;20255;-73
2022/05/20 03:50:23;;;;;;;6.97;5.20;;;14.20;99.90;;;;;;4922439;29;20246;-73
2022/05/20 03:53:07;;;;;;;5.60;4.80;;;14.30;99.90;;;;;;4900308;29;20308;-73
2022/05/20 03:55:52;;;;;;;6.50;4.77;;;14.30;99.90;;;;;;4924968;29;20230;-73
2022/05/20 03:58:36;;;;;;;6.40;4.60;;;14.30;99.90;;;;;;4919213;29;20217;-73
2022/05/20 04:04:39;;;;;;;5.37;4.70;;;14.30;99.90;;;;;;4916371;29;20275;-73
2022/05/20 04:07:26;;;;;;;5.30;4.80;;;14.30;99.90;;;;;;4901870;29;20259;-73
2022/05/20 04:10:11;;;;;;;5.80;4.80;;;14.20;99.90;;;;;;4894834;29;20207;-73
2022/05/20 04:12:55;;;;;;;6.10;5.33;;;14.20;99.90;;;;;;4927090;29;20195;-73
2022/05/20 04:15:40;;;;;;;8.40;5.83;;;14.20;99.90;;;;;;4924552;29;20292;-73
2022/05/20 04:18:24;;;;;;;8.83;5.60;;;14.20;99.90;;;;;;4920674;29;20210;-73
2022/05/20 04:21:10;;;;;;;6.77;6.17;;;14.20;99.90;;;;;;4931909;29;20614;-73
2022/05/20 04:23:54;;;;;;;8.33;5.93;;;14.20;99.90;;;;;;4935066;29;20666;-73
2022/05/20 04:26:38;;;;;;;6.53;5.80;;;14.20;99.90;;;;;;4918565;29;20194;-73
2022/05/20 04:29:22;;;;;;;6.53;5.93;;;14.20;99.90;;;;;;4904960;29;20241;-73
2022/05/20 04:32:06;;;;;;;7.77;6.53;;;14.20;99.90;;;;;;4920713;29;20175;-73
2022/05/20 04:34:50;;;;;;;11.40;7.30;;;14.20;99.90;;;;;;4935261;29;20198;-73
2022/05/20 04:37:35;;;;;;;10.63;7.00;;;14.20;99.90;;;;;;4920477;29;20263;-74
2022/05/20 04:40:19;;;;;;;8.40;7.27;;;14.20;99.90;;;;;;4908574;29;20223;-73
2022/05/20 04:49:09;;;;;;;12.83;6.77;;;14.20;99.90;;;;;;4915619;29;20219;-73
2022/05/20 04:51:54;;;;;;;7.47;6.77;;;14.20;99.90;;;;;;4909403;29;20287;-74
2022/05/20 04:54:50;;;;;;;7.13;6.40;;;14.20;99.90;;;;;;4934864;29;20733;-73
2022/05/20 04:57:49;;;;;;;7.50;6.67;;;14.20;99.90;;;;;;4882971;29;20351;-73
2022/05/20 05:00:34;;;;;;;7.67;6.77;;;14.30;99.90;;;;;;4882925;29;20227;-73
2022/05/20 05:03:18;;;;;;;9.53;7.10;;;14.30;99.90;;;;;;4883462;29;20184;-73
2022/05/20 05:06:02;;;;;;;8.33;6.83;;;14.30;99.90;;;;;;4882799;29;20263;-73
2022/05/20 05:08:47;;;;;;;7.50;6.80;;;14.30;99.90;;;;;;4911824;29;20263;-73
2022/05/20 05:11:31;;;;;;;8.43;7.40;;;14.30;99.90;;;;;;4906147;29;20685;-73
2022/05/20 05:14:16;;;;;;;7.53;6.83;;;14.30;99.90;;;;;;4919541;29;20195;-73
2022/05/20 05:17:00;;;;;;;7.27;6.43;;;14.30;99.90;;;;;;4905083;29;20203;-73
2022/05/20 05:19:44;;;;;;;8.03;7.13;;;14.30;99.90;;;;;;4911469;29;20226;-73
2022/05/20 05:22:29;;;;;;;9.00;7.03;;;14.30;99.90;;;;;;4924635;29;20167;-72
2022/05/20 05:25:14;;;;;;;15.83;6.90;;;14.40;99.90;;;;;;4924005;29;20255;-73
2022/05/20 05:27:58;;;;;;;8.73;7.07;;;14.40;99.90;;;;;;4894910;29;20299;-73
2022/05/20 05:30:50;;;;;;;8.70;6.53;;;14.40;99.90;;;;;;4938181;29;20178;-73
2022/05/20 05:33:34;;;;;;;10.77;6.77;;;14.40;99.90;;;;;;4930964;29;20204;-73
2022/05/20 05:36:19;;;;;;;7.50;6.77;;;14.50;99.90;;;;;;4900018;29;20176;-74
2022/05/20 05:39:04;;;;;;;7.40;6.70;;;14.50;99.90;;;;;;4885971;29;20348;-73
2022/05/20 05:41:48;;;;;;;8.70;6.37;;;14.50;99.90;;;;;;4895155;29;20203;-73
2022/05/20 05:44:32;;;;;;;7.03;5.97;;;14.60;99.90;;;;;;4918737;29;20195;-73
2022/05/20 05:47:16;;;;;;;8.10;5.23;;;14.60;99.90;;;;;;4905194;29;20264;-73
2022/05/20 05:50:00;;;;;;;7.70;4.93;;;14.60;99.90;;;;;;4904379;29;20268;-73
2022/05/20 05:52:44;;;;;;;7.40;5.57;;;14.60;99.90;;;;;;4918858;29;20203;-72
2022/05/20 05:55:29;;;;;;;6.60;4.53;;;14.60;99.90;;;;;;4904478;29;20191;-73
2022/05/20 05:58:13;;;;;;;6.83;5.00;;;14.60;99.90;;;;;;4918637;29;20246;-73
2022/05/20 06:00:58;;;;;;;5.70;5.00;;;14.60;99.90;;;;;;4919075;29;20206;-73
2022/05/20 06:03:42;;;;;;;6.30;5.30;;;14.50;99.90;;;;;;4908795;29;20186;-73
2022/05/20 06:06:26;;;;;;;7.27;5.50;;;14.60;99.90;;;;;;4938042;29;20174;-73
2022/05/20 06:09:10;;;;;;;6.93;4.90;;;14.60;99.90;;;;;;4922343;29;20578;-74
2022/05/20 06:11:54;;;;;;;8.50;4.57;;;14.60;99.90;;;;;;4914190;29;20557;-73
2022/05/20 06:14:39;;;;;;;5.67;4.80;;;14.60;99.90;;;;;;4904745;29;20183;-73
2022/05/20 06:17:23;;;;;;;5.47;4.73;;;14.60;99.90;;;;;;4918676;29;20195;-73
2022/05/20 06:20:08;;;;;;;5.63;4.73;;;14.60;99.90;;;;;;4903491;29;20214;-73
2022/05/20 06:22:53;;;;;;;7.07;5.17;;;14.70;99.90;;;;;;4903304;29;20294;-73
2022/05/20 06:25:37;;;;;;;6.97;4.80;;;14.70;99.90;;;;;;4903949;29;20171;-73
2022/05/20 06:28:22;;;;;;;4.97;4.47;;;14.80;99.90;;;;;;4900998;29;20222;-73
2022/05/20 06:31:06;;;;;;;5.70;4.70;;;14.80;99.90;;;;;;4922889;29;20191;-73
2022/05/20 06:33:50;;;;;;;6.93;4.83;;;14.80;99.90;;;;;;4922406;29;20561;-73
2022/05/20 06:39:50;;;;;;;5.67;5.20;;;14.90;99.90;;;;;;4900565;29;20227;-73
2022/05/20 06:42:34;;;;;;;6.47;5.17;;;14.90;99.90;;;;;;4902272;29;20195;-73
2022/05/20 06:45:18;;;;;;;6.93;5.03;;;14.90;99.90;;;;;;4918687;29;20171;-73
2022/05/20 06:48:02;;;;;;;9.80;5.50;;;15.00;99.90;;;;;;4912775;29;20817;-73
2022/05/20 06:50:47;;;;;;;7.77;6.00;;;15.00;99.90;;;;;;4903046;29;20236;-73
2022/05/20 06:53:31;;;;;;;7.97;5.73;;;15.10;99.90;;;;;;4904772;29;20199;-73
2022/05/20 06:56:15;;;;;;;6.97;5.87;;;15.10;99.90;;;;;;4884587;29;20258;-73
2022/05/20 06:59:01;;;;;;;8.57;5.80;;;15.10;99.90;;;;;;4885546;29;20586;-73
2022/05/20 07:01:45;;;;;;;6.67;5.33;;;15.10;99.90;;;;;;4921818;29;20246;-73
2022/05/20 07:04:30;;;;;;;7.23;5.57;;;15.10;99.90;;;;;;4922580;29;20170;-73
2022/05/20 07:07:14;;;;;;;6.33;5.53;;;15.10;99.90;;;;;;4916885;29;20255;-73
2022/05/20 07:09:58;;;;;;;9.93;6.10;;;15.10;99.90;;;;;;4902520;29;20211;-73
2022/05/20 07:12:42;;;;;;;8.23;6.17;;;15.20;99.90;;;;;;4914099;29;20199;-73
2022/05/20 07:15:26;;;;;;;6.10;5.50;;;15.20;99.90;;;;;;4902528;29;20232;-73
2022/05/20 07:18:11;;;;;;;10.00;4.73;;;15.30;99.90;;;;;;4896339;29;20268;-73
2022/05/20 07:20:55;;;;;;;11.07;5.20;;;15.30;99.90;;;;;;4884393;29;20199;-73
2022/05/20 07:23:39;;;;;;;6.50;4.97;;;15.30;99.90;;;;;;4916089;29;20558;-73
2022/05/20 07:26:24;;;;;;;6.63;5.43;;;15.30;99.90;;;;;;4884384;29;20293;-73
2022/05/20 07:29:11;;;;;;;6.20;5.20;;;15.30;99.90;;;;;;4884420;29;20220;-73
2022/05/20 07:31:55;;;;;;;5.97;4.93;;;15.40;99.90;;;;;;4887773;29;20211;-73
2022/05/20 07:34:39;;;;;;;7.40;4.87;;;15.50;99.90;;;;;;4930987;29;20198;-73
2022/05/20 07:37:23;;;;;;;8.20;5.10;;;15.60;99.90;;;;;;4920123;29;20232;-73
2022/05/20 07:40:08;;;;;;;7.53;5.27;;;15.70;99.90;;;;;;4902731;29;20206;-73
2022/05/20 07:42:52;;;;;;;8.33;4.77;;;15.80;99.90;;;;;;4903230;29;20292;-73
2022/05/20 07:45:36;;;;;;;7.47;5.20;;;15.80;99.90;;;;;;4916630;29;20531;-74
2022/05/20 07:48:21;;;;;;;6.23;5.27;;;15.90;99.90;;;;;;4915332;29;20215;-72
2022/05/20 07:51:10;;;;;;;7.37;5.07;;;16.00;99.90;;;;;;4918776;29;20652;-73
2022/05/20 07:54:04;;;;;;;6.77;5.17;;;16.10;99.90;;;;;;4931729;29;20194;-73
2022/05/20 07:56:55;;;;;;;5.93;4.60;;;16.20;99.90;;;;;;4921793;29;20205;-73
2022/05/20 07:59:45;;;;;;;7.60;5.00;;;16.20;99.90;;;;;;4915760;29;20219;-73
2022/05/20 08:02:30;;;;;;;7.00;4.80;;;16.20;99.90;;;;;;4916429;29;20252;-73
2022/05/20 08:05:20;;;;;;;5.70;4.97;;;16.20;99.90;;;;;;4902072;29;20232;-73
2022/05/20 08:08:07;;;;;;;8.33;4.97;;;16.20;99.90;;;;;;4897591;29;20212;-73
2022/05/20 08:10:51;;;;;;;7.80;4.93;;;16.20;99.90;;;;;;4890736;29;20199;-73
2022/05/20 08:13:35;;;;;;;6.33;5.00;;;16.30;99.90;;;;;;4901651;29;20675;-73
2022/05/20 08:16:19;;;;;;;8.17;5.07;;;16.30;99.90;;;;;;4904640;29;20183;-73
2022/05/20 08:19:03;;;;;;;6.37;4.97;;;16.30;99.90;;;;;;4921423;29;20615;-73
2022/05/20 08:21:47;;;;;;;7.30;4.60;;;16.40;99.90;;;;;;4935252;29;20679;-73
2022/05/20 08:24:32;;;;;;;7.93;5.20;;;16.50;99.90;;;;;;4920455;29;20210;-73
2022/05/20 08:27:15;;;;;;;6.50;5.20;;;16.60;99.90;;;;;;4885860;29;20262;-73
2022/05/20 08:30:15;;;;;;;5.67;4.80;;;16.60;99.90;;;;;;4896588;29;20223;-73
2022/05/20 08:32:59;;;;;;;7.43;5.13;;;16.70;99.90;;;;;;4902723;29;20211;-73
2022/05/20 08:35:43;;;;;;;7.83;6.10;;;16.70;99.90;;;;;;4915586;29;20251;-73
2022/05/20 08:38:27;;;;;;;8.83;5.70;;;16.70;99.90;;;;;;4915543;29;20222;-73
2022/05/20 08:41:27;;;;;;;7.47;5.70;;;16.60;99.90;;;;;;4902726;29;20252;-73
2022/05/20 08:44:15;;;;;;;5.77;5.20;;;16.60;99.90;;;;;;4901492;29;20191;-73
2022/05/20 08:47:32;;;;;;;6.13;5.17;;;16.50;99.90;;;;;;4924417;29;20287;-73
2022/05/20 08:50:22;;;;;;;9.00;6.00;;;16.50;99.90;;;;;;4924630;29;20243;-73
2022/05/20 08:53:11;;;;;;;6.37;5.63;;;16.50;99.90;;;;;;4923787;29;20184;-73
2022/05/20 08:56:02;;;;;;;7.57;6.00;;;16.60;99.90;;;;;;4905323;29;20560;-73
2022/05/20 08:59:11;;;;;;;8.33;5.43;;;16.60;99.90;;;;;;4905063;29;20231;-73
2022/05/20 09:01:55;;;;;;;7.37;5.73;;;16.60;99.90;;;;;;4899608;29;20220;-73
2022/05/20 09:04:40;;;;;;;6.50;5.80;;;16.70;99.90;;;;;;4886688;29;20290;-73
2022/05/20 09:07:24;;;;;;;8.50;5.13;;;16.80;99.90;;;;;;4887078;29;20245;-73
2022/05/20 09:10:09;;;;;;;7.73;6.07;;;16.80;99.90;;;;;;4895407;29;20210;-73
2022/05/20 09:13:09;;;;;;;7.97;5.87;;;16.90;99.90;;;;;;4932477;29;20207;-73
2022/05/20 09:16:04;;;;;;;7.13;5.90;;;17.00;99.90;;;;;;4901239;29;20178;-73
2022/05/20 09:19:02;;;;;;;7.13;5.47;;;17.00;99.90;;;;;;4885604;29;20215;-73
2022/05/20 09:22:06;;;;;;;7.77;4.60;;;17.10;99.90;;;;;;4897477;29;20322;-72
2022/05/20 09:24:50;;;;;;;8.87;5.00;;;17.10;99.90;;;;;;4886671;29;20236;-74
2022/05/20 09:27:39;;;;;;;10.57;5.73;;;17.20;99.90;;;;;;4886142;29;20177;-72
2022/05/20 09:30:24;;;;;;;8.33;5.30;;;17.20;99.90;;;;;;4894630;29;20194;-73
2022/05/20 09:33:17;;;;;;;6.87;5.37;;;17.30;99.90;;;;;;4938268;29;20227;-73
2022/05/20 09:36:02;;;;;;;6.87;4.87;;;17.30;99.90;;;;;;4923669;29;20234;-73
2022/05/20 09:38:47;;;;;;;5.97;4.17;;;17.30;99.90;;;;;;4922756;29;20262;-73
2022/05/20 09:41:30;;;;;;;7.80;3.80;;;17.40;99.90;;;;;;4928610;29;20230;-73
2022/05/20 09:44:16;;;;;;;5.97;3.93;;;17.50;99.90;;;;;;4905832;29;20260;-73
2022/05/20 09:47:14;;;;;;;9.03;4.83;;;17.60;99.90;;;;;;4936493;29;20202;-73
2022/05/20 09:50:23;;;;;;;6.73;4.47;;;17.70;99.90;;;;;;4917297;29;20311;-73
2022/05/20 09:53:15;;;;;;;5.43;4.07;;;17.70;99.90;;;;;;4918730;29;20672;-74
2022/05/20 09:56:24;;;;;;;7.23;3.80;;;17.80;99.90;;;;;;4918867;29;20248;-73
2022/05/20 09:59:20;;;;;;;5.93;3.93;;;17.90;99.90;;;;;;4903663;29;20219;-73
2022/05/20 10:02:13;;;;;;;8.00;3.50;;;17.90;99.90;;;;;;4885128;29;20256;-73
2022/05/20 10:05:03;;;;;;;6.23;3.37;;;18.00;99.90;;;;;;4899799;29;20671;-74
2022/05/20 10:08:00;;;;;;;5.93;3.47;;;18.10;99.90;;;;;;4918417;29;20258;-74
2022/05/20 10:11:03;;;;;;;5.35;3.92;;;18.10;99.90;;;;;;4910065;29;20238;-73
2022/05/20 10:13:46;;;;;;;6.75;3.97;;;18.20;99.90;;;;;;4903429;29;20200;-73
2022/05/20 10:17:08;;;;;;;5.20;3.80;;;18.30;99.90;;;;;;4898639;29;20265;-73
2022/05/20 10:19:55;;;;;;;8.87;3.40;;;18.30;99.90;;;;;;4900455;29;20219;-73
2022/05/20 10:23:09;;;;;;;5.13;3.67;;;18.30;99.90;;;;;;4898026;29;20208;-73
2022/05/20 10:26:03;;;;;;;4.57;3.73;;;18.40;99.90;;;;;;4899007;29;20245;-73
2022/05/20 10:32:37;;;;;;;4.75;3.70;;;18.70;99.90;;;;;;4899554;29;20244;-73
2022/05/20 10:35:24;;;;;;;5.75;3.42;;;18.70;99.90;;;;;;4885811;29;20229;-74
2022/05/20 10:38:44;;;;;;;4.97;3.40;;;18.70;99.90;;;;;;4885125;29;20226;-73
2022/05/20 10:41:50;;;;;;;3.97;3.38;;;18.70;99.90;;;;;;4912687;29;20275;-74
2022/05/20 10:48:35;;;;;;;9.85;4.05;;;18.70;99.90;;;;;;4918171;29;20215;-73
2022/05/20 10:51:43;;;;;;;7.00;4.50;;;18.90;99.90;;;;;;4897736;29;20688;-73
2022/05/20 10:54:44;;;;;;;5.57;3.80;;;19.00;99.90;;;;;;4884512;29;20185;-74
2022/05/20 10:57:37;;;;;;;5.43;3.75;;;19.10;99.90;;;;;;4884946;29;20180;-73
2022/05/20 11:00:25;;;;;;;4.05;3.42;;;19.10;99.90;;;;;;4891924;29;20595;-73
2022/05/20 11:03:32;;;;;;;7.63;4.47;;;19.10;99.90;;;;;;4913855;29;20247;-74
2022/05/20 11:06:33;;;;;;;4.70;4.03;;;19.20;99.90;;;;;;4887939;29;20542;-73
2022/05/20 11:09:39;;;;;;;6.43;3.88;;;19.20;99.90;;;;;;4884354;29;20210;-72
2022/05/20 11:12:23;;;;;;;4.03;3.60;;;19.30;99.90;;;;;;4918150;29;20696;-73
2022/05/20 11:15:31;;;;;;;5.68;3.70;;;19.40;99.90;;;;;;4902798;29;20684;-73
2022/05/20 11:18:37;;;;;;;5.03;3.53;;;19.50;99.90;;;;;;4903267;29;20211;-73
2022/05/20 11:21:39;;;;;;;5.90;3.33;;;19.60;99.90;;;;;;4913430;29;20249;-73
2022/05/20 11:24:52;;;;;;;6.32;3.50;;;19.70;99.90;;;;;;4884994;29;20608;-73
2022/05/20 11:27:45;;;;;;;3.63;3.10;;;19.70;99.90;;;;;;4884414;29;20177;-73
2022/05/20 11:31:07;;;;;;;4.10;2.92;;;19.80;99.90;;;;;;4889344;29;20247;-73
2022/05/20 11:34:15;;;;;;;4.50;3.13;;;19.80;99.90;;;;;;4897812;29;20644;-73
2022/05/20 11:37:27;;;;;;;5.25;2.38;;;19.80;99.90;;;;;;4897744;29;20223;-73
2022/05/20 11:40:55;;;;;;;4.57;2.42;;;19.90;99.90;;;;;;4905932;29;20271;-74
2022/05/20 11:44:13;;;;;;;3.75;2.72;;;20.00;99.90;;;;;;4921283;29;20222;-74
2022/05/20 11:47:32;;;;;;;3.53;2.80;;;20.20;99.90;;;;;;4883594;29;20285;-73
2022/05/20 11:50:26;;;;;;;3.55;2.70;;;20.40;99.90;;;;;;4872561;29;20790;-74
2022/05/20 11:53:15;;;;;;;4.22;2.78;;;20.40;99.90;;;;;;4919362;29;20186;-74
2022/05/20 11:56:14;;;;;;;3.38;2.30;;;20.50;99.90;;;;;;4935311;29;20643;-73
2022/05/20 11:59:17;;;;;;;5.25;2.70;;;20.50;99.90;;;;;;4936047;29;20298;-73
2022/05/20 12:02:07;;;;;;;3.40;2.08;;;20.50;99.90;;;;;;4901035;29;20346;-74
2022/05/20 12:04:52;;;;;;;3.47;2.42;;;20.60;99.90;;;;;;4902039;29;20171;-73
2022/05/20 12:07:38;;;;;;;5.38;2.22;;;20.70;99.90;;;;;;4916658;29;20232;-74
2022/05/20 12:10:31;;;;;;;2.97;1.67;;;20.70;99.90;;;;;;4901166;29;20224;-74
2022/05/20 12:13:23;;;;;;;5.63;2.13;;;20.80;99.90;;;;;;4910125;29;20230;-73
2022/05/20 12:16:16;;;;;;;2.40;1.90;;;20.80;99.90;;;;;;4900839;29;20203;-74
2022/05/20 12:25:32;;;;;;;2.85;1.48;;;20.80;99.90;;;;;;4923124;29;20196;-74
2022/05/20 12:28:23;;;;;;;4.38;2.72;;;20.90;99.90;;;;;;4882917;29;20259;-74
2022/05/20 12:31:31;;;;;;;5.25;3.00;;;20.90;99.90;;;;;;4896140;29;20259;-73
2022/05/20 12:34:41;;;;;;;4.82;2.97;;;21.00;99.90;;;;;;4916089;29;20207;-73
2022/05/20 12:37:44;;;;;;;4.38;2.85;;;21.00;99.90;;;;;;4896870;29;20184;-73
2022/05/20 12:40:28;;;;;;;3.97;2.80;;;21.10;99.90;;;;;;4889593;29;20219;-73
2022/05/20 12:43:12;;;;;;;5.03;2.40;;;21.10;99.90;;;;;;4908042;29;20216;-74
2022/05/20 12:45:56;;;;;;;3.60;2.28;;;21.00;99.90;;;;;;4899806;29;20207;-74
2022/05/20 12:48:40;;;;;;;2.95;2.65;;;21.00;99.90;;;;;;4915691;29;20597;-73
2022/05/20 12:51:24;;;;;;;2.83;2.42;;;21.10;99.90;;;;;;4901512;29;20178;-74
2022/05/20 12:54:19;;;;;;;3.30;2.50;;;21.10;99.90;;;;;;4901446;29;20620;-75
2022/05/20 12:57:19;;;;;;;3.13;2.15;;;21.10;99.90;;;;;;4915598;29;20255;-73
2022/05/20 13:00:12;;;;;;;2.35;1.67;;;21.10;99.90;;;;;;4900230;29;20372;-74
2022/05/20 13:03:10;;;;;;;2.15;1.73;;;21.10;99.90;;;;;;4901487;29;20210;-74
2022/05/20 13:06:01;;;;;;;3.97;2.08;;;21.30;99.90;;;;;;4909311;29;20202;-73
2022/05/20 13:09:02;;;;;;;3.30;1.80;;;21.40;99.90;;;;;;4911262;29;20222;-73
2022/05/20 13:11:50;;;;;;;3.33;1.80;;;21.40;99.90;;;;;;4909370;29;20343;-74
2022/05/20 13:14:36;;;;;;;3.70;1.67;;;21.50;99.90;;;;;;4896666;29;20237;-74
2022/05/20 13:17:21;;;;;;;3.00;1.70;;;21.50;99.90;;;;;;4896504;29;20208;-74
2022/05/20 13:20:10;;;;;;;3.83;2.40;;;21.60;99.90;;;;;;4895503;29;20276;-73
2022/05/20 13:23:02;;;;;;;4.00;2.60;;;21.60;99.90;;;;;;4888193;29;20231;-74
2022/05/20 13:25:46;;;;;;;3.50;3.20;;;21.70;99.90;;;;;;4924699;29;20675;-72
2022/05/20 13:28:33;;;;;;;3.42;2.92;;;21.70;99.90;;;;;;4919943;29;20257;-73
2022/05/20 13:31:25;;;;;;;3.70;3.10;;;21.70;99.90;;;;;;4914219;29;20207;-74
2022/05/20 13:34:09;;;;;;;4.63;2.90;;;21.60;99.90;;;;;;4894970;29;20260;-74
2022/05/20 13:36:53;;;;;;;3.92;2.58;;;21.60;99.90;;;;;;4899014;29;20229;-73
2022/05/20 13:39:37;;;;;;;4.22;2.47;;;21.60;99.90;;;;;;4900308;29;20235;-73
2022/05/20 13:42:24;;;;;;;2.42;1.92;;;21.60;99.90;;;;;;4901036;29;20704;-74
2022/05/20 13:45:13;;;;;;;3.25;2.20;;;21.60;99.90;;;;;;4885729;29;20641;-73
2022/05/20 13:51:04;;;;;;;3.25;2.08;;;21.60;99.90;;;;;;4877786;29;20215;-74
2022/05/20 13:53:49;;;;;;;3.30;2.63;;;21.50;99.90;;;;;;4900013;29;20220;-73
2022/05/20 13:56:37;;;;;;;7.97;2.80;;;21.50;99.90;;;;;;4899670;29;20213;-73
2022/05/20 13:59:27;;;;;;;2.75;2.50;;;21.50;99.90;;;;;;4917605;29;20223;-74
2022/05/20 14:02:15;;;;;;;2.95;2.33;;;21.50;99.90;;;;;;4917529;29;20235;-74
2022/05/20 14:04:59;;;;;;;2.60;2.20;;;21.50;99.90;;;;;;4904050;29;20256;-73
2022/05/20 14:07:54;;;;;;;3.17;1.90;;;21.50;99.90;;;;;;4905092;29;20228;-74
2022/05/20 14:10:40;;;;;;;4.13;2.45;;;21.50;99.90;;;;;;4890616;29;20259;-73
2022/05/20 14:13:32;;;;;;;2.50;1.95;;;21.40;99.90;;;;;;4910196;29;20243;-74
2022/05/20 14:16:32;;;;;;;3.72;2.10;;;21.40;99.90;;;;;;4902955;29;20207;-74
2022/05/20 14:19:25;;;;;;;3.22;1.85;;;21.40;99.90;;;;;;4928553;29;20223;-74
2022/05/20 14:22:17;;;;;;;4.40;2.47;;;21.40;99.90;;;;;;4922978;29;20214;-74
2022/05/20 14:25:14;;;;;;;3.63;2.40;;;21.40;99.90;;;;;;4929730;29;20235;-73
2022/05/20 14:28:19;;;;;;;4.32;2.35;;;21.30;99.90;;;;;;4903287;29;20182;-74
2022/05/20 14:31:03;;;;;;;5.57;3.30;;;21.30;99.90;;;;;;4900472;29;20202;-74
2022/05/20 14:33:52;;;;;;;3.97;3.30;;;21.30;99.90;;;;;;4899058;29;20198;-74
2022/05/20 14:36:37;;;;;;;5.05;2.85;;;21.30;99.90;;;;;;4909770;29;20210;-73
2022/05/20 14:39:23;;;;;;;4.68;3.03;;;21.20;99.90;;;;;;4922113;29;20279;-73
2022/05/20 14:42:08;;;;;;;4.03;3.05;;;21.10;99.90;;;;;;4893364;29;20216;-73
2022/05/20 14:44:55;;;;;;;5.22;3.38;;;21.10;99.90;;;;;;4897166;29;20200;-73
2022/05/20 14:47:43;;;;;;;7.07;4.20;;;21.00;99.90;;;;;;4898790;29;20532;-74
2022/05/20 14:50:28;;;;;;;6.10;4.38;;;20.90;99.90;;;;;;4884672;29;20216;-73
2022/05/20 14:53:24;;;;;;;9.23;5.13;;;20.80;99.90;;;;;;4883387;29;20610;-74
2022/05/20 14:56:37;;;;;;;5.95;5.45;;;20.80;99.90;;;;;;4923502;29;20234;-73
2022/05/20 14:59:32;;;;;;;7.93;6.45;;;20.70;99.90;;;;;;4931690;29;20223;-74
2022/05/20 15:02:16;;;;;;;9.82;6.50;;;20.60;99.90;;;;;;4917016;29;20195;-74
2022/05/20 15:05:00;;;;;;;8.02;6.50;;;20.50;99.90;;;;;;4911579;29;20280;-74
2022/05/20 15:07:45;;;;;;;6.97;6.20;;;20.40;99.90;;;;;;4917279;29;20194;-73
2022/05/20 15:10:31;;;;;;;8.48;6.45;;;20.40;99.90;;;;;;4931524;29;20187;-74
2022/05/20 15:13:15;;;;;;;9.18;7.00;;;20.30;99.90;;;;;;4895063;29;20203;-73
2022/05/20 15:15:59;;;;;;;9.85;7.53;;;20.20;99.90;;;;;;4901937;29;20218;-74